Time;durP1;ratioP1;P1;durP2;ratioP2;P2;SDS_P1;SDS_P2;PMS_P1;PMS_P2;Temp;Humidity;BMP_temperature;BMP_pressure;BME280_temperature;BME280_humidity;BME280_pressure;Samples;Min_cycle;Max_cycle;Signal;HPM_P1;HPM_P2
2023/06/03 00:01:21;;;;;;;6.40;4.83;;;;;;;;;;5121778;27;20762;-72
2023/06/03 00:03:49;;;;;;;5.27;4.63;;;;;;;;;;5121502;28;20243;-72
2023/06/03 00:06:18;;;;;;;5.20;4.47;;;;;;;;;;5121700;28;20264;-72
2023/06/03 00:08:46;;;;;;;6.83;4.23;;;;;;;;;;5121689;28;20240;-73
2023/06/03 00:11:14;;;;;;;5.20;4.70;;;;;;;;;;5121576;28;20312;-72
2023/06/03 00:13:42;;;;;;;5.50;4.50;;;;;;;;;;5121737;28;20216;-73
2023/06/03 00:16:11;;;;;;;8.27;4.77;;;;;;;;;;5121497;28;20248;-73
2023/06/03 00:18:41;;;;;;;6.67;4.57;;;;;;;;;;5121096;28;20201;-73
2023/06/03 00:21:09;;;;;;;6.67;4.60;;;;;;;;;;5121633;28;20248;-72
2023/06/03 00:23:38;;;;;;;5.67;4.00;;;;;;;;;;5121238;28;20288;-73
2023/06/03 00:26:06;;;;;;;7.70;4.73;;;;;;;;;;5121155;28;20263;-73
2023/06/03 00:28:34;;;;;;;5.27;4.30;;;;;;;;;;5113634;27;20211;-73
2023/06/03 00:31:03;;;;;;;5.07;4.53;;;;;;;;;;5121169;28;20656;-73
2023/06/03 00:33:31;;;;;;;5.50;3.80;;;;;;;;;;5121137;28;20221;-73
2023/06/03 00:36:01;;;;;;;4.80;4.33;;;;;;;;;;5120975;28;20295;-74
2023/06/03 00:38:29;;;;;;;5.77;3.80;;;;;;;;;;5120947;28;20213;-74
2023/06/03 00:40:57;;;;;;;5.40;3.87;;;;;;;;;;5121276;28;20217;-74
2023/06/03 00:43:25;;;;;;;4.47;4.07;;;;;;;;;;5120975;28;20551;-73
2023/06/03 00:45:54;;;;;;;7.17;3.87;;;;;;;;;;5120972;28;20260;-72
2023/06/03 00:48:22;;;;;;;6.90;3.90;;;;;;;;;;5120872;28;20200;-73
2023/06/03 00:50:50;;;;;;;4.40;4.00;;;;;;;;;;5120998;28;20209;-73
2023/06/03 00:53:20;;;;;;;5.40;3.80;;;;;;;;;;5120557;28;20245;-73
2023/06/03 00:55:48;;;;;;;4.87;3.90;;;;;;;;;;5119565;28;20629;-73
2023/06/03 00:58:16;;;;;;;4.30;3.93;;;;;;;;;;5120989;28;20216;-73
2023/06/03 01:00:45;;;;;;;4.50;3.90;;;;;;;;;;5120500;28;20205;-73
2023/06/03 01:03:15;;;;;;;8.07;4.37;;;;;;;;;;5120609;28;20201;-73
2023/06/03 01:05:45;;;;;;;9.77;5.10;;;;;;;;;;5120559;27;20229;-73
2023/06/03 01:08:18;;;;;;;5.33;4.33;;;;;;;;;;5120532;27;20254;-73
2023/06/03 01:10:51;;;;;;;6.57;4.70;;;;;;;;;;5120736;28;20205;-73
2023/06/03 01:13:22;;;;;;;4.47;4.07;;;;;;;;;;5120351;28;20236;-73
2023/06/03 01:15:53;;;;;;;5.47;4.90;;;;;;;;;;5120254;28;20225;-72
2023/06/03 01:18:21;;;;;;;7.67;4.90;;;;;;;;;;5120160;28;20206;-73
2023/06/03 01:20:50;;;;;;;7.77;5.07;;;;;;;;;;5120489;28;20212;-72
2023/06/03 01:23:23;;;;;;;6.80;4.57;;;;;;;;;;5120282;28;20291;-73
2023/06/03 01:25:52;;;;;;;10.87;4.80;;;;;;;;;;5120238;28;20217;-73
2023/06/03 01:28:20;;;;;;;6.77;5.50;;;;;;;;;;5119952;28;20227;-73
2023/06/03 01:30:48;;;;;;;7.73;5.53;;;;;;;;;;5120097;28;20669;-73
2023/06/03 01:33:18;;;;;;;9.43;5.43;;;;;;;;;;5119597;28;20232;-73
2023/06/03 01:35:46;;;;;;;8.83;5.43;;;;;;;;;;5120052;28;20221;-73
2023/06/03 01:38:14;;;;;;;8.47;5.60;;;;;;;;;;5120090;28;20216;-72
2023/06/03 01:40:44;;;;;;;7.50;6.07;;;;;;;;;;5119742;28;20202;-73
2023/06/03 01:43:12;;;;;;;7.13;5.60;;;;;;;;;;5119829;28;20654;-74
2023/06/03 01:45:41;;;;;;;7.57;5.87;;;;;;;;;;5119446;28;20299;-73
2023/06/03 01:48:11;;;;;;;8.23;6.20;;;;;;;;;;5119711;28;20300;-73
2023/06/03 01:50:41;;;;;;;7.63;6.30;;;;;;;;;;5119588;28;20233;-74
2023/06/03 01:53:09;;;;;;;7.50;6.40;;;;;;;;;;5119496;28;20314;-72
2023/06/03 01:55:38;;;;;;;8.37;6.20;;;;;;;;;;5119377;28;20221;-74
2023/06/03 01:58:07;;;;;;;11.67;6.60;;;;;;;;;;5119628;27;20209;-73
2023/06/03 02:00:38;;;;;;;12.73;7.20;;;;;;;;;;5119380;28;20269;-73
2023/06/03 02:03:07;;;;;;;7.87;6.40;;;;;;;;;;5119230;28;20204;-73
2023/06/03 02:05:35;;;;;;;7.63;6.23;;;;;;;;;;5119196;28;20297;-73
2023/06/03 02:08:03;;;;;;;9.17;6.90;;;;;;;;;;5119197;28;20221;-73
2023/06/03 02:10:31;;;;;;;7.30;6.53;;;;;;;;;;5119112;28;20680;-73
2023/06/03 02:13:00;;;;;;;9.70;6.87;;;;;;;;;;5119471;28;20204;-73
2023/06/03 02:15:29;;;;;;;16.03;7.97;;;;;;;;;;5119291;28;20225;-73
2023/06/03 02:17:57;;;;;;;9.30;7.47;;;;;;;;;;5119069;28;20220;-73
2023/06/03 02:20:25;;;;;;;9.50;6.93;;;;;;;;;;5119041;28;20210;-73
2023/06/03 02:22:54;;;;;;;10.07;6.97;;;;;;;;;;5119117;28;20213;-73
2023/06/03 02:25:22;;;;;;;10.87;7.53;;;;;;;;;;5118980;28;20594;-73
2023/06/03 02:27:50;;;;;;;14.70;7.97;;;;;;;;;;5114368;28;20213;-73
2023/06/03 02:30:18;;;;;;;10.37;7.50;;;;;;;;;;5113090;28;20209;-73
2023/06/03 02:32:48;;;;;;;13.50;7.77;;;;;;;;;;5118615;28;20209;-73
2023/06/03 02:35:16;;;;;;;11.77;8.13;;;;;;;;;;5118936;28;20225;-73
2023/06/03 02:37:44;;;;;;;10.40;8.00;;;;;;;;;;5118730;28;20612;-73
2023/06/03 02:40:13;;;;;;;11.53;7.60;;;;;;;;;;5118558;28;20211;-73
2023/06/03 02:42:41;;;;;;;13.37;7.63;;;;;;;;;;5118923;28;20205;-73
2023/06/03 02:45:10;;;;;;;13.90;8.97;;;;;;;;;;5116912;28;20319;-73
2023/06/03 02:47:38;;;;;;;8.93;6.77;;;;;;;;;;5118762;27;20658;-72
2023/06/03 02:50:09;;;;;;;10.63;8.33;;;;;;;;;;5119217;27;20261;-73
2023/06/03 02:52:37;;;;;;;11.73;8.03;;;;;;;;;;5115361;28;20229;-71
2023/06/03 02:55:07;;;;;;;10.17;7.93;;;;;;;;;;5119811;27;20205;-73
2023/06/03 02:57:35;;;;;;;12.13;8.43;;;;;;;;;;5115480;28;20200;-74
2023/06/03 03:00:09;;;;;;;9.17;7.67;;;;;;;;;;5120691;27;20204;-72
2023/06/03 03:02:39;;;;;;;11.07;7.87;;;;;;;;;;5119524;27;20199;-71
2023/06/03 03:05:10;;;;;;;10.80;8.27;;;;;;;;;;5119041;27;20205;-72
2023/06/03 03:07:38;;;;;;;10.17;7.17;;;;;;;;;;5118287;28;20623;-71
2023/06/03 03:10:07;;;;;;;13.37;8.07;;;;;;;;;;5120017;28;20219;-72
2023/06/03 03:12:38;;;;;;;17.23;9.00;;;;;;;;;;5113368;28;20286;-73
2023/06/03 03:15:07;;;;;;;13.87;8.57;;;;;;;;;;5117699;28;20204;-71
2023/06/03 03:17:35;;;;;;;12.57;8.73;;;;;;;;;;5117491;28;20277;-73
2023/06/03 03:20:03;;;;;;;12.03;8.57;;;;;;;;;;5119526;28;20276;-73
2023/06/03 03:22:34;;;;;;;10.73;8.77;;;;;;;;;;5120344;28;20291;-73
2023/06/03 03:25:03;;;;;;;11.37;8.37;;;;;;;;;;5117896;28;20197;-72
2023/06/03 03:27:31;;;;;;;11.53;8.23;;;;;;;;;;5117902;28;20220;-73
2023/06/03 03:30:01;;;;;;;9.53;8.30;;;;;;;;;;5118982;28;20223;-73
2023/06/03 03:32:32;;;;;;;14.03;9.20;;;;;;;;;;5118918;28;20204;-72
2023/06/03 03:35:09;;;;;;;12.43;9.07;;;;;;;;;;5118411;28;20257;-71
2023/06/03 03:37:39;;;;;;;13.57;8.30;;;;;;;;;;5116128;28;20200;-71
2023/06/03 03:40:11;;;;;;;11.57;8.17;;;;;;;;;;5117500;28;20280;-72
2023/06/03 03:42:40;;;;;;;9.40;7.90;;;;;;;;;;5121815;28;20284;-72
2023/06/03 03:45:15;;;;;;;12.67;8.10;;;;;;;;;;5119178;28;20201;-72
2023/06/03 03:47:44;;;;;;;11.77;8.70;;;;;;;;;;5116193;28;20221;-73
2023/06/03 03:50:20;;;;;;;11.20;7.80;;;;;;;;;;5118267;28;20274;-73
2023/06/03 03:52:51;;;;;;;9.97;8.03;;;;;;;;;;5118703;28;20240;-74
2023/06/03 03:55:20;;;;;;;10.57;7.87;;;;;;;;;;5117459;28;20227;-72
2023/06/03 03:57:49;;;;;;;10.17;8.20;;;;;;;;;;5120683;28;20220;-73
2023/06/03 04:00:19;;;;;;;10.40;7.80;;;;;;;;;;5120045;28;20232;-72
2023/06/03 04:02:47;;;;;;;12.67;7.93;;;;;;;;;;5116593;28;20220;-71
2023/06/03 04:05:17;;;;;;;14.80;8.40;;;;;;;;;;5120078;28;20290;-72
2023/06/03 04:07:48;;;;;;;9.57;7.97;;;;;;;;;;5114798;28;20217;-71
2023/06/03 04:10:20;;;;;;;10.73;8.07;;;;;;;;;;5117805;28;20207;-72
2023/06/03 04:12:49;;;;;;;12.03;7.97;;;;;;;;;;5113266;28;20626;-72
2023/06/03 04:15:24;;;;;;;10.10;8.23;;;;;;;;;;5114336;28;20228;-71
2023/06/03 04:17:52;;;;;;;10.93;8.10;;;;;;;;;;5117178;28;20196;-74
2023/06/03 04:20:33;;;;;;;12.23;8.20;;;;;;;;;;5113725;28;20564;-73
2023/06/03 04:23:04;;;;;;;10.43;8.33;;;;;;;;;;5112594;28;20279;-74
2023/06/03 04:25:34;;;;;;;11.00;8.30;;;;;;;;;;5117465;28;20304;-72
2023/06/03 04:28:03;;;;;;;9.80;7.80;;;;;;;;;;5117479;28;20223;-74
2023/06/03 04:30:31;;;;;;;8.93;7.27;;;;;;;;;;5118795;28;20295;-74
2023/06/03 04:32:59;;;;;;;10.00;8.27;;;;;;;;;;5120538;28;20207;-73
2023/06/03 04:35:27;;;;;;;10.13;8.37;;;;;;;;;;5121009;28;20631;-72
2023/06/03 04:37:55;;;;;;;10.20;7.77;;;;;;;;;;5121171;28;20197;-72
2023/06/03 04:40:23;;;;;;;10.53;7.73;;;;;;;;;;5121396;28;20209;-74
2023/06/03 04:42:53;;;;;;;9.33;7.90;;;;;;;;;;5121045;28;20232;-73
2023/06/03 04:45:23;;;;;;;11.13;8.80;;;;;;;;;;5121158;28;20232;-73
2023/06/03 04:47:52;;;;;;;11.33;8.33;;;;;;;;;;5120769;28;20228;-73
2023/06/03 04:50:21;;;;;;;12.43;8.77;;;;;;;;;;5120930;28;20568;-74
2023/06/03 04:52:49;;;;;;;8.60;7.70;;;;;;;;;;5120634;28;20240;-74
2023/06/03 04:55:17;;;;;;;8.87;8.03;;;;;;;;;;5120631;28;20712;-73
2023/06/03 04:57:50;;;;;;;11.93;8.80;;;;;;;;;;5120673;28;20201;-73
2023/06/03 05:00:21;;;;;;;9.93;7.87;;;;;;;;;;5120566;28;20232;-74
2023/06/03 05:02:56;;;;;;;11.03;8.67;;;;;;;;;;5120373;28;20219;-74
2023/06/03 05:05:25;;;;;;;12.77;8.93;;;;;;;;;;5120456;28;20228;-74
2023/06/03 05:07:53;;;;;;;9.93;8.80;;;;;;;;;;5120333;28;20237;-74
2023/06/03 05:10:22;;;;;;;15.47;8.97;;;;;;;;;;5120417;28;20292;-74
2023/06/03 05:12:50;;;;;;;9.77;8.00;;;;;;;;;;5120486;28;20579;-74
2023/06/03 05:15:19;;;;;;;12.47;9.30;;;;;;;;;;5109248;28;20236;-73
2023/06/03 05:17:48;;;;;;;11.97;9.43;;;;;;;;;;5120228;28;20205;-74
2023/06/03 05:20:16;;;;;;;11.27;8.47;;;;;;;;;;5120558;28;20214;-73
2023/06/03 05:22:44;;;;;;;12.47;9.23;;;;;;;;;;5120569;28;20224;-74
2023/06/03 05:25:13;;;;;;;10.53;9.10;;;;;;;;;;5119996;28;20236;-73
2023/06/03 05:27:41;;;;;;;10.50;8.80;;;;;;;;;;5119993;28;20720;-72
2023/06/03 05:30:20;;;;;;;12.27;9.10;;;;;;;;;;5120446;28;20205;-72
2023/06/03 05:32:50;;;;;;;11.13;8.47;;;;;;;;;;5119713;28;20293;-72
2023/06/03 05:35:19;;;;;;;9.97;8.50;;;;;;;;;;5120049;28;20225;-72
2023/06/03 05:37:47;;;;;;;11.37;8.70;;;;;;;;;;5119928;28;20635;-73
2023/06/03 05:40:15;;;;;;;10.37;7.43;;;;;;;;;;5119945;28;20213;-73
2023/06/03 05:42:47;;;;;;;9.20;7.03;;;;;;;;;;5119419;28;20245;-73
2023/06/03 05:45:15;;;;;;;14.10;7.27;;;;;;;;;;5120043;28;20253;-73
2023/06/03 05:47:43;;;;;;;10.47;7.07;;;;;;;;;;5119878;28;20209;-75
2023/06/03 05:50:13;;;;;;;12.63;7.20;;;;;;;;;;5119588;28;20229;-74
2023/06/03 05:52:41;;;;;;;11.67;6.00;;;;;;;;;;5119627;28;20233;-72
2023/06/03 05:55:10;;;;;;;7.77;6.20;;;;;;;;;;5119578;28;20236;-73
2023/06/03 05:57:40;;;;;;;6.50;5.60;;;;;;;;;;5119561;28;20236;-73
2023/06/03 06:00:09;;;;;;;7.57;6.17;;;;;;;;;;5117834;28;20203;-73
2023/06/03 06:02:37;;;;;;;7.10;5.50;;;;;;;;;;5105353;28;20205;-73
2023/06/03 06:05:06;;;;;;;13.13;6.57;;;;;;;;;;5128579;27;20693;-73
2023/06/03 06:07:36;;;;;;;7.27;6.17;;;;;;;;;;5126742;27;20212;-74
2023/06/03 06:10:04;;;;;;;8.30;6.27;;;;;;;;;;5119126;28;20224;-74
2023/06/03 06:12:32;;;;;;;10.63;6.57;;;;;;;;;;5119163;28;20205;-71
2023/06/03 06:15:00;;;;;;;9.53;5.87;;;;;;;;;;5119349;28;20261;-71
2023/06/03 06:17:28;;;;;;;8.47;5.67;;;;;;;;;;5119092;28;20209;-72
2023/06/03 06:19:57;;;;;;;7.63;5.60;;;;;;;;;;5110980;27;20200;-71
2023/06/03 06:22:25;;;;;;;7.27;5.40;;;;;;;;;;5139843;27;20204;-70
2023/06/03 06:24:54;;;;;;;11.40;6.30;;;;;;;;;;5139496;27;20287;-71
2023/06/03 06:27:23;;;;;;;7.93;6.13;;;;;;;;;;5122952;27;20663;-71
2023/06/03 06:29:52;;;;;;;7.73;6.07;;;;;;;;;;5118761;28;20250;-72
2023/06/03 06:32:23;;;;;;;8.33;5.70;;;;;;;;;;5118591;28;20208;-71
2023/06/03 06:34:51;;;;;;;6.90;5.77;;;;;;;;;;5118757;28;20222;-71
2023/06/03 06:37:19;;;;;;;9.17;5.83;;;;;;;;;;5119074;28;20207;-71
2023/06/03 06:39:48;;;;;;;14.53;7.00;;;;;;;;;;5124114;27;20533;-70
2023/06/03 06:42:24;;;;;;;9.27;6.37;;;;;;;;;;5139338;27;20208;-71
2023/06/03 06:44:53;;;;;;;7.80;6.87;;;;;;;;;;5137446;27;20290;-70
2023/06/03 06:47:36;;;;;;;8.30;5.77;;;;;;;;;;5115923;28;20208;-72
2023/06/03 06:50:05;;;;;;;6.60;5.97;;;;;;;;;;5118679;28;20659;-69
2023/06/03 06:52:33;;;;;;;8.07;6.70;;;;;;;;;;5109424;28;20316;-67
2023/06/03 06:55:06;;;;;;;9.37;6.60;;;;;;;;;;5114561;27;20207;-65
2023/06/03 06:57:35;;;;;;;6.77;6.07;;;;;;;;;;5131666;27;20201;-67
2023/06/03 07:00:04;;;;;;;6.80;6.10;;;;;;;;;;5112189;28;20204;-69
2023/06/03 07:02:32;;;;;;;7.97;5.80;;;;;;;;;;5118004;28;20635;-70
2023/06/03 07:05:00;;;;;;;9.60;6.40;;;;;;;;;;5118514;28;20236;-67
2023/06/03 07:07:34;;;;;;;8.80;6.10;;;;;;;;;;5110071;28;20624;-68
2023/06/03 07:10:04;;;;;;;10.40;6.13;;;;;;;;;;5117059;28;20221;-67
2023/06/03 07:12:37;;;;;;;7.60;5.40;;;;;;;;;;5118375;28;20208;-68
2023/06/03 07:15:06;;;;;;;8.17;6.63;;;;;;;;;;5102473;28;20227;-69
2023/06/03 07:17:34;;;;;;;9.37;6.47;;;;;;;;;;5100336;28;20289;-67
2023/06/03 07:20:05;;;;;;;6.53;5.80;;;;;;;;;;5113243;28;20736;-67
2023/06/03 07:22:33;;;;;;;9.33;6.77;;;;;;;;;;5123964;28;20616;-68
2023/06/03 07:25:02;;;;;;;6.53;5.37;;;;;;;;;;5131499;27;20311;-68
2023/06/03 07:27:31;;;;;;;8.43;5.20;;;;;;;;;;5118199;28;20201;-68
2023/06/03 07:30:02;;;;;;;9.40;6.03;;;;;;;;;;5117804;28;20702;-68
2023/06/03 07:32:30;;;;;;;6.83;5.97;;;;;;;;;;5117907;28;20234;-68
2023/06/03 07:34:59;;;;;;;12.33;6.90;;;;;;;;;;5117838;28;20295;-68
2023/06/03 07:37:27;;;;;;;10.93;6.73;;;;;;;;;;5117777;28;20233;-70
2023/06/03 07:39:55;;;;;;;9.10;6.43;;;;;;;;;;5117696;28;20228;-70
2023/06/03 07:42:25;;;;;;;9.03;5.53;;;;;;;;;;5117946;28;20630;-70
2023/06/03 07:44:56;;;;;;;9.40;6.37;;;;;;;;;;5118124;28;20210;-71
2023/06/03 07:47:26;;;;;;;8.57;6.67;;;;;;;;;;5117803;28;20289;-69
2023/06/03 07:49:55;;;;;;;8.53;6.37;;;;;;;;;;5117983;28;20225;-71
2023/06/03 07:52:24;;;;;;;7.87;6.50;;;;;;;;;;5117819;28;20245;-71
2023/06/03 07:54:52;;;;;;;8.10;6.13;;;;;;;;;;5117703;28;20287;-70
2023/06/03 07:57:20;;;;;;;9.70;5.80;;;;;;;;;;5117185;28;20571;-70
2023/06/03 07:59:51;;;;;;;7.10;5.53;;;;;;;;;;5117985;28;20202;-70
2023/06/03 08:02:19;;;;;;;9.17;6.23;;;;;;;;;;5117391;28;20203;-70
2023/06/03 08:04:52;;;;;;;8.07;5.90;;;;;;;;;;5116862;28;20690;-70
2023/06/03 08:07:20;;;;;;;10.83;6.13;;;;;;;;;;5114650;28;20210;-70
2023/06/03 08:09:48;;;;;;;6.80;5.90;;;;;;;;;;5107635;28;20664;-71
2023/06/03 08:12:19;;;;;;;8.07;5.93;;;;;;;;;;5121502;28;20214;-70
2023/06/03 08:14:47;;;;;;;8.10;5.47;;;;;;;;;;5121448;28;20202;-70
2023/06/03 08:17:16;;;;;;;8.27;6.17;;;;;;;;;;5121145;28;20652;-70
2023/06/03 08:19:45;;;;;;;6.53;5.60;;;;;;;;;;5121744;28;20214;-71
2023/06/03 08:22:27;;;;;;;10.43;5.60;;;;;;;;;;5121696;28;20275;-70
2023/06/03 08:24:55;;;;;;;11.30;6.27;;;;;;;;;;5121182;28;20657;-69
2023/06/03 08:27:23;;;;;;;10.40;5.77;;;;;;;;;;5121437;28;20293;-70
2023/06/03 08:29:52;;;;;;;10.20;7.07;;;;;;;;;;5121138;28;20763;-70
2023/06/03 08:32:22;;;;;;;9.17;6.23;;;;;;;;;;5120901;28;20633;-70
2023/06/03 08:34:50;;;;;;;8.63;6.13;;;;;;;;;;5121101;28;20303;-70
2023/06/03 08:37:20;;;;;;;8.90;6.43;;;;;;;;;;5121092;28;20636;-71
2023/06/03 08:39:49;;;;;;;9.80;6.53;;;;;;;;;;5121180;28;20206;-70
2023/06/03 08:42:20;;;;;;;8.63;6.60;;;;;;;;;;5120964;28;20258;-70
2023/06/03 08:44:50;;;;;;;11.00;6.90;;;;;;;;;;5115233;28;20200;-70
2023/06/03 08:47:25;;;;;;;8.27;6.37;;;;;;;;;;5116880;28;20214;-70
2023/06/03 08:49:58;;;;;;;11.63;7.47;;;;;;;;;;5121093;28;20261;-71
2023/06/03 08:52:31;;;;;;;10.13;7.20;;;;;;;;;;5120567;28;20592;-71
2023/06/03 08:55:00;;;;;;;13.77;7.37;;;;;;;;;;5120640;28;20207;-70
2023/06/03 08:57:31;;;;;;;9.87;7.67;;;;;;;;;;5120898;28;20202;-70
2023/06/03 09:00:00;;;;;;;13.33;9.10;;;;;;;;;;5120806;28;20285;-70
2023/06/03 09:02:29;;;;;;;15.47;9.43;;;;;;;;;;5111255;28;20277;-70
2023/06/03 09:04:58;;;;;;;10.80;7.03;;;;;;;;;;5120613;28;20215;-70
2023/06/03 09:07:29;;;;;;;12.10;6.73;;;;;;;;;;5120553;28;20302;-71
2023/06/03 09:09:57;;;;;;;14.87;7.90;;;;;;;;;;5120533;28;20244;-71
2023/06/03 09:12:27;;;;;;;10.90;7.33;;;;;;;;;;5120748;28;20292;-71
2023/06/03 09:14:55;;;;;;;9.43;6.67;;;;;;;;;;5120559;28;20211;-70
2023/06/03 09:17:24;;;;;;;10.33;7.60;;;;;;;;;;5119226;28;20205;-71
2023/06/03 09:19:53;;;;;;;21.10;11.73;;;;;;;;;;5113647;27;20206;-71
2023/06/03 09:22:21;;;;;;;13.33;7.60;;;;;;;;;;5110028;28;20202;-71
2023/06/03 09:24:50;;;;;;;10.90;6.77;;;;;;;;;;5119852;28;20275;-71
2023/06/03 09:27:19;;;;;;;8.07;7.03;;;;;;;;;;5112833;28;20204;-71
2023/06/03 09:29:47;;;;;;;11.83;7.83;;;;;;;;;;5116983;28;20213;-70
2023/06/03 09:32:15;;;;;;;10.40;7.03;;;;;;;;;;5119994;28;20230;-70
2023/06/03 09:34:44;;;;;;;11.03;6.87;;;;;;;;;;5120241;28;20232;-70
2023/06/03 09:37:12;;;;;;;40.00;26.13;;;;;;;;;;5119947;28;20232;-71
2023/06/03 09:39:41;;;;;;;16.17;9.87;;;;;;;;;;5119792;28;20248;-71
2023/06/03 09:42:10;;;;;;;13.07;7.40;;;;;;;;;;5119808;28;20678;-71
2023/06/03 09:44:40;;;;;;;13.50;9.00;;;;;;;;;;5119613;28;20565;-70
2023/06/03 09:47:09;;;;;;;10.63;8.83;;;;;;;;;;5119708;28;20323;-71
2023/06/03 09:49:38;;;;;;;13.90;8.93;;;;;;;;;;5119876;28;20212;-70
2023/06/03 09:52:31;;;;;;;15.70;10.50;;;;;;;;;;5119409;28;20232;-70
2023/06/03 09:55:03;;;;;;;14.13;10.17;;;;;;;;;;5119356;28;20579;-71
2023/06/03 09:57:32;;;;;;;9.77;8.17;;;;;;;;;;5119343;28;20228;-71
2023/06/03 10:00:07;;;;;;;10.67;7.50;;;;;;;;;;5119793;28;20209;-71
2023/06/03 10:02:37;;;;;;;11.77;9.00;;;;;;;;;;5107496;28;20296;-71
2023/06/03 10:05:05;;;;;;;9.60;7.60;;;;;;;;;;5119575;28;20238;-71
2023/06/03 10:07:34;;;;;;;12.00;8.53;;;;;;;;;;5118986;28;20242;-71
2023/06/03 10:10:08;;;;;;;11.13;7.30;;;;;;;;;;5119099;28;20250;-71
2023/06/03 10:12:37;;;;;;;11.83;8.07;;;;;;;;;;5119089;27;20713;-70
2023/06/03 10:15:06;;;;;;;10.17;8.57;;;;;;;;;;5119157;27;20218;-71
2023/06/03 10:17:34;;;;;;;9.27;7.03;;;;;;;;;;5119191;28;20205;-71
2023/06/03 10:20:04;;;;;;;12.07;8.17;;;;;;;;;;5119272;28;20205;-71
2023/06/03 10:22:33;;;;;;;14.43;9.60;;;;;;;;;;5119280;28;20203;-71
2023/06/03 10:25:01;;;;;;;13.23;8.43;;;;;;;;;;5118667;28;20203;-71
2023/06/03 10:27:29;;;;;;;14.80;9.03;;;;;;;;;;5119019;28;20210;-71
2023/06/03 10:30:00;;;;;;;13.97;8.20;;;;;;;;;;5118855;28;20211;-71
2023/06/03 10:32:29;;;;;;;10.43;7.43;;;;;;;;;;5118697;28;20314;-70
2023/06/03 10:35:00;;;;;;;11.27;7.50;;;;;;;;;;5118668;28;20749;-71
2023/06/03 10:37:29;;;;;;;10.33;8.13;;;;;;;;;;5118654;28;20237;-71
2023/06/03 10:40:00;;;;;;;9.80;7.57;;;;;;;;;;5118575;28;20577;-71
2023/06/03 10:42:28;;;;;;;9.50;6.87;;;;;;;;;;5118992;28;20216;-70
2023/06/03 10:44:56;;;;;;;9.43;7.83;;;;;;;;;;5118655;28;20218;-70
2023/06/03 10:47:27;;;;;;;11.60;7.60;;;;;;;;;;5118369;28;20234;-71
2023/06/03 10:49:57;;;;;;;11.17;6.90;;;;;;;;;;5118461;28;20211;-71
2023/06/03 10:52:48;;;;;;;9.63;7.33;;;;;;;;;;5118503;28;20272;-71
2023/06/03 10:55:25;;;;;;;8.70;7.10;;;;;;;;;;5114407;28;20711;-70
2023/06/03 10:58:00;;;;;;;16.53;9.20;;;;;;;;;;5118648;28;20258;-70
2023/06/03 11:00:51;;;;;;;13.63;7.70;;;;;;;;;;5118387;28;20297;-70
2023/06/03 11:03:22;;;;;;;11.57;7.97;;;;;;;;;;5118062;28;20295;-71
2023/06/03 11:05:50;;;;;;;11.20;7.60;;;;;;;;;;5118532;28;20309;-70
2023/06/03 11:08:37;;;;;;;8.77;7.27;;;;;;;;;;5118261;28;20268;-71
2023/06/03 11:11:05;;;;;;;15.10;12.33;;;;;;;;;;5118250;28;20239;-70
2023/06/03 11:13:44;;;;;;;8.53;7.40;;;;;;;;;;5118312;28;20230;-70
2023/06/03 11:16:14;;;;;;;9.60;7.27;;;;;;;;;;5118064;28;20227;-70
2023/06/03 11:18:43;;;;;;;9.07;7.03;;;;;;;;;;5118201;28;20680;-71
2023/06/03 11:21:26;;;;;;;12.20;7.27;;;;;;;;;;5118334;28;20266;-71
2023/06/03 11:23:54;;;;;;;7.83;6.83;;;;;;;;;;5117696;28;20208;-71
2023/06/03 11:26:36;;;;;;;11.07;6.83;;;;;;;;;;5118127;28;20225;-71
2023/06/03 11:29:06;;;;;;;8.47;7.03;;;;;;;;;;5107735;28;20242;-71
2023/06/03 11:31:34;;;;;;;14.03;6.93;;;;;;;;;;5117843;28;20226;-71
2023/06/03 11:34:23;;;;;;;11.13;7.50;;;;;;;;;;5118160;28;20206;-71
2023/06/03 11:36:52;;;;;;;9.27;6.63;;;;;;;;;;5117826;28;20625;-71
2023/06/03 11:39:21;;;;;;;8.47;7.17;;;;;;;;;;5119186;28;20205;-71
2023/06/03 11:42:11;;;;;;;8.93;6.67;;;;;;;;;;5114210;28;20209;-71
2023/06/03 11:44:41;;;;;;;10.83;6.43;;;;;;;;;;5122464;28;20216;-71
2023/06/03 11:47:09;;;;;;;7.90;6.70;;;;;;;;;;5121867;28;20227;-71
2023/06/03 11:49:40;;;;;;;7.47;6.53;;;;;;;;;;5122368;28;20215;-71
2023/06/03 11:52:09;;;;;;;9.53;6.67;;;;;;;;;;5121788;28;20297;-71
2023/06/03 11:54:37;;;;;;;8.77;6.13;;;;;;;;;;5121884;28;20694;-70
2023/06/03 11:57:07;;;;;;;7.83;6.33;;;;;;;;;;5122045;28;20285;-71
2023/06/03 11:59:37;;;;;;;11.80;7.27;;;;;;;;;;5122105;28;20212;-71
2023/06/03 12:02:06;;;;;;;7.40;6.10;;;;;;;;;;5121841;28;20217;-71
2023/06/03 12:04:34;;;;;;;10.77;6.60;;;;;;;;;;5121926;28;20284;-71
2023/06/03 12:07:11;;;;;;;10.67;6.77;;;;;;;;;;5121509;28;20222;-71
2023/06/03 12:09:40;;;;;;;6.70;5.90;;;;;;;;;;5121806;28;20203;-71
2023/06/03 12:12:09;;;;;;;7.30;6.17;;;;;;;;;;5121600;27;20226;-71
2023/06/03 12:14:38;;;;;;;9.97;6.60;;;;;;;;;;5121470;28;20290;-71
2023/06/03 12:17:10;;;;;;;9.87;5.83;;;;;;;;;;5121429;28;20228;-71
2023/06/03 12:19:40;;;;;;;7.77;6.13;;;;;;;;;;5121397;28;20681;-71
2023/06/03 12:22:08;;;;;;;7.97;6.20;;;;;;;;;;5121660;28;20235;-71
2023/06/03 12:24:40;;;;;;;8.63;6.17;;;;;;;;;;5121285;28;20242;-71
2023/06/03 12:27:12;;;;;;;9.63;6.17;;;;;;;;;;5121364;28;20222;-71
2023/06/03 12:29:44;;;;;;;8.73;6.47;;;;;;;;;;5121582;28;20250;-71
2023/06/03 12:32:12;;;;;;;11.40;6.20;;;;;;;;;;5121077;28;20234;-70
2023/06/03 12:34:41;;;;;;;6.90;6.07;;;;;;;;;;5121497;28;20207;-71
2023/06/03 12:37:09;;;;;;;7.57;6.33;;;;;;;;;;5121245;28;20232;-71
2023/06/03 12:39:45;;;;;;;9.20;6.37;;;;;;;;;;5121003;27;20212;-71
2023/06/03 12:42:13;;;;;;;10.97;6.27;;;;;;;;;;5121002;28;20208;-71
2023/06/03 12:44:43;;;;;;;9.57;6.70;;;;;;;;;;5121255;28;20294;-71
2023/06/03 12:47:11;;;;;;;7.20;6.30;;;;;;;;;;5120813;28;20230;-70
2023/06/03 12:49:39;;;;;;;7.17;6.03;;;;;;;;;;5120916;28;20247;-71
2023/06/03 12:52:11;;;;;;;8.17;6.37;;;;;;;;;;5119522;28;20236;-70
2023/06/03 12:54:51;;;;;;;8.17;6.57;;;;;;;;;;5120670;28;20545;-71
2023/06/03 12:57:20;;;;;;;7.83;5.80;;;;;;;;;;5120827;28;20206;-71
2023/06/03 13:00:06;;;;;;;7.10;6.00;;;;;;;;;;5120938;28;20238;-71
2023/06/03 13:02:35;;;;;;;8.30;6.27;;;;;;;;;;5120695;28;20287;-71
2023/06/03 13:05:04;;;;;;;9.97;6.23;;;;;;;;;;5120696;28;20235;-71
2023/06/03 13:07:34;;;;;;;7.73;5.93;;;;;;;;;;5120519;28;20272;-71
2023/06/03 13:10:04;;;;;;;6.20;5.60;;;;;;;;;;5107073;28;20208;-71
2023/06/03 13:12:32;;;;;;;8.47;6.20;;;;;;;;;;5120287;28;20568;-71
2023/06/03 13:15:01;;;;;;;10.43;6.90;;;;;;;;;;5120336;28;20272;-70
2023/06/03 13:17:29;;;;;;;12.57;7.63;;;;;;;;;;5120172;28;20297;-70
2023/06/03 13:19:57;;;;;;;6.73;5.90;;;;;;;;;;5120317;28;20231;-70
2023/06/03 13:22:27;;;;;;;7.80;5.87;;;;;;;;;;5120409;28;20212;-71
2023/06/03 13:24:55;;;;;;;10.97;6.03;;;;;;;;;;5120114;28;20656;-71
2023/06/03 13:27:25;;;;;;;9.40;6.47;;;;;;;;;;5120063;28;20583;-71
2023/06/03 13:29:53;;;;;;;10.33;7.00;;;;;;;;;;5120168;28;20207;-70
2023/06/03 13:32:22;;;;;;;7.80;6.53;;;;;;;;;;5119598;28;20227;-70
2023/06/03 13:34:50;;;;;;;9.13;6.87;;;;;;;;;;5120235;28;20203;-69
2023/06/03 13:37:20;;;;;;;7.83;6.00;;;;;;;;;;5120266;28;20239;-70
2023/06/03 13:39:48;;;;;;;9.73;6.47;;;;;;;;;;5119852;28;20220;-70
2023/06/03 13:42:16;;;;;;;7.40;5.53;;;;;;;;;;5111799;27;20204;-71
2023/06/03 13:44:46;;;;;;;8.33;6.93;;;;;;;;;;5117458;28;20751;-71
2023/06/03 13:47:14;;;;;;;8.60;6.70;;;;;;;;;;5119807;28;20272;-71
2023/06/03 13:49:42;;;;;;;8.73;6.60;;;;;;;;;;5119994;28;20289;-71
2023/06/03 13:52:10;;;;;;;8.70;6.47;;;;;;;;;;5119523;28;20207;-70
2023/06/03 13:54:38;;;;;;;7.30;6.53;;;;;;;;;;5119766;28;20211;-70
2023/06/03 13:57:08;;;;;;;9.10;7.13;;;;;;;;;;5119535;28;20246;-70
2023/06/03 13:59:37;;;;;;;8.83;6.03;;;;;;;;;;5119617;28;20289;-70
2023/06/03 14:02:08;;;;;;;8.03;6.03;;;;;;;;;;5119209;28;20216;-71
2023/06/03 14:04:36;;;;;;;6.97;6.17;;;;;;;;;;5119770;28;20199;-71
2023/06/03 14:07:05;;;;;;;7.57;6.57;;;;;;;;;;5119483;28;20237;-70
2023/06/03 14:09:33;;;;;;;6.27;5.67;;;;;;;;;;5119552;28;20200;-71
2023/06/03 14:12:01;;;;;;;7.33;5.87;;;;;;;;;;5119220;28;20239;-70
2023/06/03 14:14:29;;;;;;;7.63;5.77;;;;;;;;;;5119205;28;20239;-70
2023/06/03 14:16:57;;;;;;;10.10;6.60;;;;;;;;;;5119014;28;20315;-70
2023/06/03 14:19:27;;;;;;;7.23;5.87;;;;;;;;;;5119421;28;20206;-71
2023/06/03 14:21:55;;;;;;;6.90;5.53;;;;;;;;;;5119314;28;20205;-71
2023/06/03 14:24:23;;;;;;;9.33;6.67;;;;;;;;;;5119265;28;20202;-71
2023/06/03 14:26:51;;;;;;;8.33;7.03;;;;;;;;;;5118860;28;20233;-70
2023/06/03 14:29:19;;;;;;;6.50;5.90;;;;;;;;;;5119104;28;20214;-70
2023/06/03 14:31:47;;;;;;;24.77;16.27;;;;;;;;;;5119349;28;20288;-70
2023/06/03 14:34:16;;;;;;;6.40;5.73;;;;;;;;;;5119019;28;20224;-70
2023/06/03 14:36:45;;;;;;;17.80;12.17;;;;;;;;;;5118944;28;20312;-70
2023/06/03 14:39:15;;;;;;;23.50;15.63;;;;;;;;;;5118682;28;20257;-70
2023/06/03 14:41:43;;;;;;;11.37;8.90;;;;;;;;;;5118520;28;20301;-71
2023/06/03 14:44:13;;;;;;;11.23;6.60;;;;;;;;;;5119006;28;20210;-68
2023/06/03 14:46:41;;;;;;;6.77;5.37;;;;;;;;;;5118247;28;20228;-71
2023/06/03 14:49:11;;;;;;;6.43;5.00;;;;;;;;;;5118637;28;20206;-70
2023/06/03 14:51:40;;;;;;;5.77;4.87;;;;;;;;;;5118587;28;20655;-70
2023/06/03 14:54:10;;;;;;;6.83;5.60;;;;;;;;;;5118269;28;20333;-70